Time;durP1;ratioP1;P1;durP2;ratioP2;P2;SDS_P1;SDS_P2;PMS_P1;PMS_P2;Temp;Humidity;BMP_temperature;BMP_pressure;BME280_temperature;BME280_humidity;BME280_pressure;Samples;Min_cycle;Max_cycle;Signal;HPM_P1;HPM_P2
2022/03/29 00:01:38;;;;;;;28.35;18.48;;;7.90;99.90;;;;;;4970814;28;20489;-73
2022/03/29 00:04:03;;;;;;;27.33;17.90;;;7.90;99.90;;;;;;4989860;28;20058;-73
2022/03/29 00:06:29;;;;;;;28.85;18.67;;;7.80;99.90;;;;;;4990221;28;20081;-73
2022/03/29 00:08:56;;;;;;;26.42;17.63;;;7.80;99.90;;;;;;4982065;28;20054;-73
2022/03/29 00:11:21;;;;;;;26.55;17.25;;;7.80;99.90;;;;;;4986235;28;20049;-73
2022/03/29 00:13:47;;;;;;;25.27;17.67;;;7.80;99.90;;;;;;4988279;28;20046;-73
2022/03/29 00:16:13;;;;;;;26.88;18.33;;;7.80;99.90;;;;;;4987781;28;20544;-73
2022/03/29 00:18:39;;;;;;;29.52;18.02;;;7.90;99.90;;;;;;4954452;28;20038;-73
2022/03/29 00:21:05;;;;;;;29.83;17.70;;;7.90;99.90;;;;;;4987640;28;20511;-73
2022/03/29 00:23:30;;;;;;;26.77;17.08;;;8.70;99.90;;;;;;4970672;28;20403;-73
2022/03/29 00:25:56;;;;;;;30.43;18.30;;;7.90;99.90;;;;;;4987204;28;20164;-73
2022/03/29 00:28:21;;;;;;;29.27;17.17;;;7.90;99.90;;;;;;4987631;28;20035;-73
2022/03/29 00:30:47;;;;;;;28.98;16.60;;;7.80;99.90;;;;;;4989699;28;20039;-73
2022/03/29 00:33:13;;;;;;;28.15;17.73;;;7.80;99.90;;;;;;4972205;28;20085;-74
2022/03/29 00:35:39;;;;;;;30.15;17.45;;;7.70;99.90;;;;;;4954867;28;20440;-73
2022/03/29 00:38:05;;;;;;;27.38;17.33;;;8.90;99.90;;;;;;4970883;28;20251;-74
2022/03/29 00:40:31;;;;;;;29.13;18.00;;;7.80;99.90;;;;;;4952564;28;20389;-74
2022/03/29 00:42:57;;;;;;;24.65;16.45;;;7.80;99.90;;;;;;4988034;28;20859;-73
2022/03/29 00:45:26;;;;;;;30.45;17.27;;;7.80;99.90;;;;;;4955019;28;20113;-74
2022/03/29 00:47:52;;;;;;;29.77;18.13;;;7.80;99.90;;;;;;4991190;28;20124;-73
2022/03/29 00:50:18;;;;;;;32.08;18.65;;;7.70;99.90;;;;;;4991631;28;20046;-74
2022/03/29 00:52:44;;;;;;;29.27;17.25;;;8.10;99.90;;;;;;4957310;28;20065;-73
2022/03/29 00:55:14;;;;;;;29.52;18.52;;;7.90;99.90;;;;;;4973039;28;20125;-73
2022/03/29 00:57:41;;;;;;;29.30;18.80;;;7.90;99.90;;;;;;4990505;28;20065;-73
2022/03/29 01:00:07;;;;;;;29.30;17.45;;;8.00;99.90;;;;;;4990851;28;20059;-73
2022/03/29 01:02:33;;;;;;;28.70;18.38;;;7.80;99.90;;;;;;4990496;28;20049;-73
2022/03/29 01:04:58;;;;;;;30.30;19.23;;;7.70;99.90;;;;;;4973688;28;20038;-74
2022/03/29 01:07:27;;;;;;;29.63;19.00;;;7.70;99.90;;;;;;4990657;28;20104;-73
2022/03/29 01:09:53;;;;;;;32.20;19.05;;;7.70;99.90;;;;;;4989796;28;20065;-73
2022/03/29 01:12:19;;;;;;;35.05;19.10;;;7.80;99.90;;;;;;4973051;28;20050;-73
2022/03/29 01:14:45;;;;;;;31.58;19.00;;;7.70;99.90;;;;;;4972457;28;20064;-74
2022/03/29 01:19:58;;;;;;;29.63;18.63;;;7.70;99.90;;;;;;4990979;28;20050;-73
2022/03/29 01:22:24;;;;;;;32.95;17.80;;;7.60;99.90;;;;;;4990804;28;20108;-73
2022/03/29 01:24:52;;;;;;;32.38;18.70;;;7.70;99.90;;;;;;4990584;28;20042;-72
2022/03/29 01:27:19;;;;;;;34.83;19.30;;;7.70;99.90;;;;;;4972488;28;20117;-72
2022/03/29 01:29:46;;;;;;;29.00;18.85;;;7.60;99.90;;;;;;4989957;28;20153;-72
2022/03/29 01:32:11;;;;;;;29.00;18.70;;;7.60;99.90;;;;;;4990355;28;20100;-74
2022/03/29 01:34:41;;;;;;;31.50;18.77;;;7.50;99.90;;;;;;4972946;28;20043;-72
2022/03/29 01:37:07;;;;;;;30.85;17.85;;;7.50;99.90;;;;;;4990578;28;20176;-72
2022/03/29 01:39:34;;;;;;;31.52;18.20;;;7.50;99.90;;;;;;4990009;28;20100;-73
2022/03/29 01:42:01;;;;;;;33.08;18.58;;;7.50;99.90;;;;;;4989054;28;20050;-72
2022/03/29 01:44:27;;;;;;;29.75;18.38;;;7.50;99.90;;;;;;4990219;28;20980;-73
2022/03/29 01:46:53;;;;;;;28.95;17.92;;;9.10;99.90;;;;;;4973093;28;20078;-72
2022/03/29 01:49:19;;;;;;;28.33;16.48;;;8.80;99.90;;;;;;4973526;28;20117;-73
2022/03/29 01:51:45;;;;;;;30.67;18.85;;;7.60;99.90;;;;;;4990235;28;20529;-73
2022/03/29 01:54:11;;;;;;;32.50;18.50;;;7.60;99.90;;;;;;4990362;28;20030;-73
2022/03/29 01:56:37;;;;;;;35.42;18.63;;;8.50;99.90;;;;;;4986588;28;20101;-73
2022/03/29 01:59:07;;;;;;;28.50;17.40;;;7.60;99.90;;;;;;4990695;28;20720;-72
2022/03/29 02:01:51;;;;;;;28.30;17.33;;;7.60;99.90;;;;;;4989843;28;20116;-74
2022/03/29 02:04:17;;;;;;;35.78;17.85;;;7.60;99.90;;;;;;4975341;28;20069;-73
2022/03/29 02:06:43;;;;;;;29.00;17.48;;;7.50;99.90;;;;;;4989855;28;20050;-73
2022/03/29 02:09:08;;;;;;;32.42;17.50;;;7.60;99.90;;;;;;4989776;28;20046;-73
2022/03/29 02:11:38;;;;;;;30.42;17.38;;;7.60;99.90;;;;;;4988131;28;20530;-72
2022/03/29 02:14:03;;;;;;;32.05;17.42;;;7.50;99.90;;;;;;4989976;28;20046;-73
2022/03/29 02:16:29;;;;;;;32.13;17.88;;;7.50;99.90;;;;;;4974670;28;20406;-72
2022/03/29 02:18:55;;;;;;;30.73;16.75;;;7.50;99.90;;;;;;4971959;28;20044;-72
2022/03/29 02:21:20;;;;;;;31.55;18.27;;;8.60;99.90;;;;;;4988970;28;20483;-73
2022/03/29 02:23:46;;;;;;;28.38;17.95;;;7.50;99.90;;;;;;4972100;28;20507;-73
2022/03/29 02:26:12;;;;;;;29.88;18.48;;;7.50;99.90;;;;;;4988807;28;20065;-72
2022/03/29 02:28:37;;;;;;;32.35;18.35;;;7.50;99.90;;;;;;4989133;28;20514;-72
2022/03/29 02:31:03;;;;;;;35.05;19.33;;;7.50;99.90;;;;;;4973432;28;20042;-73
2022/03/29 02:33:29;;;;;;;33.50;18.40;;;7.50;99.90;;;;;;4989699;28;20064;-73
2022/03/29 02:35:55;;;;;;;24.98;17.50;;;7.50;99.90;;;;;;4989341;28;20039;-72
2022/03/29 02:38:21;;;;;;;32.55;18.17;;;8.80;99.90;;;;;;4989138;28;20092;-72
2022/03/29 02:40:47;;;;;;;29.60;18.15;;;8.00;99.90;;;;;;4988061;28;20050;-73
2022/03/29 02:43:13;;;;;;;30.83;18.83;;;7.50;99.90;;;;;;4989378;28;20046;-72
2022/03/29 02:45:39;;;;;;;32.67;18.88;;;7.50;99.90;;;;;;4988043;28;20518;-72
2022/03/29 02:48:05;;;;;;;32.30;18.40;;;7.40;99.90;;;;;;4989268;28;20475;-72
2022/03/29 02:50:31;;;;;;;32.78;18.27;;;7.40;99.90;;;;;;4988795;28;20091;-73
2022/03/29 02:52:59;;;;;;;31.13;19.35;;;7.40;99.90;;;;;;4989025;28;20061;-72
2022/03/29 02:55:27;;;;;;;36.50;19.00;;;7.40;99.90;;;;;;4988876;28;20066;-72
2022/03/29 02:57:54;;;;;;;30.40;17.42;;;7.40;99.90;;;;;;4988291;28;20121;-72
2022/03/29 03:00:20;;;;;;;30.88;18.58;;;7.40;99.90;;;;;;4988258;28;20050;-73
2022/03/29 03:02:48;;;;;;;28.17;18.77;;;6.60;99.90;;;;;;4954533;28;20050;-73
2022/03/29 03:05:14;;;;;;;32.30;18.40;;;7.20;99.90;;;;;;4955512;28;20053;-73
2022/03/29 03:07:41;;;;;;;30.45;18.52;;;8.00;99.90;;;;;;4969927;28;20046;-74
2022/03/29 03:10:07;;;;;;;31.15;17.80;;;7.40;99.90;;;;;;4981439;28;20541;-73
2022/03/29 03:12:44;;;;;;;32.30;19.25;;;7.40;99.90;;;;;;4988324;28;20050;-73
2022/03/29 03:15:11;;;;;;;34.28;19.25;;;7.40;99.90;;;;;;4990209;28;20097;-73
2022/03/29 03:17:37;;;;;;;30.95;18.35;;;7.40;99.90;;;;;;4988298;28;20046;-73
2022/03/29 03:20:04;;;;;;;30.75;17.98;;;7.40;99.90;;;;;;4987936;28;20053;-73
2022/03/29 03:22:30;;;;;;;32.42;18.55;;;7.40;99.90;;;;;;4970868;28;20058;-73
2022/03/29 03:24:56;;;;;;;29.60;19.23;;;7.40;99.90;;;;;;4987770;28;20061;-73
2022/03/29 03:27:21;;;;;;;36.15;19.63;;;7.40;99.90;;;;;;4969889;28;20049;-73
2022/03/29 03:29:47;;;;;;;35.45;19.50;;;7.40;99.90;;;;;;4988488;28;20042;-73
2022/03/29 03:32:13;;;;;;;35.20;19.88;;;7.40;99.90;;;;;;4989225;28;20136;-73
2022/03/29 03:34:39;;;;;;;35.33;20.42;;;7.40;99.90;;;;;;4954076;28;20044;-74
2022/03/29 03:37:05;;;;;;;35.63;19.40;;;7.50;99.90;;;;;;4971268;28;20072;-72
2022/03/29 03:39:34;;;;;;;34.22;20.15;;;7.40;99.90;;;;;;4988678;28;20117;-72
2022/03/29 03:42:00;;;;;;;36.97;20.30;;;7.40;99.90;;;;;;4986239;28;20050;-72
2022/03/29 03:44:27;;;;;;;34.38;19.00;;;7.40;99.90;;;;;;4983225;28;20244;-73
2022/03/29 03:46:52;;;;;;;39.78;20.27;;;7.40;99.90;;;;;;4982667;28;20053;-72
2022/03/29 03:49:18;;;;;;;32.20;19.90;;;7.40;99.90;;;;;;4989342;28;20113;-72
2022/03/29 03:51:44;;;;;;;34.03;19.83;;;7.40;99.90;;;;;;4973038;28;20038;-72
2022/03/29 03:54:09;;;;;;;34.60;19.40;;;7.40;99.90;;;;;;4973556;28;20109;-73
2022/03/29 03:56:35;;;;;;;35.60;20.05;;;7.40;99.90;;;;;;4991694;28;20055;-72
2022/03/29 03:59:00;;;;;;;35.10;19.80;;;7.40;99.90;;;;;;4958781;28;20047;-72
2022/03/29 04:01:27;;;;;;;33.05;19.73;;;7.40;99.90;;;;;;4989826;28;20046;-72
2022/03/29 04:03:52;;;;;;;35.47;19.80;;;7.40;99.90;;;;;;4987739;28;20034;-72
2022/03/29 04:06:18;;;;;;;35.08;18.70;;;8.10;99.90;;;;;;4987749;28;20122;-72
2022/03/29 04:08:44;;;;;;;36.22;20.40;;;8.50;99.90;;;;;;4953977;28;20082;-72
2022/03/29 04:11:10;;;;;;;35.22;20.15;;;8.60;99.90;;;;;;4968478;28;20100;-74
2022/03/29 04:13:36;;;;;;;40.30;20.73;;;7.40;99.90;;;;;;4987908;28;20054;-73
2022/03/29 04:16:04;;;;;;;39.78;21.13;;;7.40;99.90;;;;;;4969911;28;20108;-73
2022/03/29 04:18:30;;;;;;;36.00;21.25;;;7.40;99.90;;;;;;4987725;28;20038;-72
2022/03/29 04:21:00;;;;;;;35.25;21.52;;;7.40;99.90;;;;;;4973189;28;20045;-73
2022/03/29 04:23:26;;;;;;;37.88;21.08;;;7.40;99.90;;;;;;4973839;28;20073;-73
2022/03/29 04:25:51;;;;;;;35.58;21.55;;;7.40;99.90;;;;;;4990871;28;20050;-72
2022/03/29 04:28:17;;;;;;;36.67;20.98;;;7.60;99.90;;;;;;4990511;28;20076;-73
2022/03/29 04:30:42;;;;;;;37.15;21.95;;;7.40;99.90;;;;;;4990929;28;20042;-73
2022/03/29 04:33:08;;;;;;;41.50;23.08;;;7.40;99.90;;;;;;4992338;28;20151;-72
2022/03/29 04:35:34;;;;;;;35.90;20.83;;;7.40;99.90;;;;;;4973286;28;20197;-72
2022/03/29 04:37:59;;;;;;;40.90;24.27;;;7.40;99.90;;;;;;4973554;28;20058;-73
2022/03/29 04:40:25;;;;;;;39.40;24.00;;;7.40;99.90;;;;;;4990258;28;20510;-73
2022/03/29 04:42:54;;;;;;;37.35;24.30;;;7.30;99.90;;;;;;4990496;28;20093;-72
2022/03/29 04:45:20;;;;;;;41.03;24.48;;;7.30;99.90;;;;;;4978417;28;20047;-73
2022/03/29 04:47:47;;;;;;;40.95;23.15;;;7.30;99.90;;;;;;4956298;28;20054;-73
2022/03/29 04:50:14;;;;;;;39.70;24.63;;;8.70;99.90;;;;;;4985427;28;20043;-73
2022/03/29 04:52:44;;;;;;;43.70;24.20;;;7.30;99.90;;;;;;4990391;28;20050;-73
2022/03/29 04:55:11;;;;;;;45.80;26.05;;;7.30;99.90;;;;;;4989883;28;20391;-73
2022/03/29 04:57:36;;;;;;;45.85;25.45;;;7.40;99.90;;;;;;4989617;28;20062;-73
2022/03/29 05:00:04;;;;;;;43.13;25.15;;;7.30;99.90;;;;;;4990058;28;20050;-72
2022/03/29 05:02:31;;;;;;;43.80;24.83;;;7.30;99.90;;;;;;4990662;28;20045;-73
2022/03/29 05:04:57;;;;;;;43.42;24.60;;;7.30;99.90;;;;;;4974040;28;20069;-72
2022/03/29 05:07:23;;;;;;;43.10;25.55;;;7.30;99.90;;;;;;4991797;28;20054;-73
2022/03/29 05:09:50;;;;;;;42.10;22.60;;;7.30;99.90;;;;;;4984935;28;20153;-73
2022/03/29 05:12:16;;;;;;;40.55;23.63;;;7.30;99.90;;;;;;4992080;28;20507;-73
2022/03/29 05:14:43;;;;;;;40.92;23.55;;;7.30;99.90;;;;;;4989215;28;20053;-72
2022/03/29 05:17:08;;;;;;;42.85;22.85;;;7.30;99.90;;;;;;4990646;28;20050;-74
2022/03/29 05:19:34;;;;;;;41.72;23.73;;;7.30;99.90;;;;;;4990741;28;20061;-73
2022/03/29 05:22:00;;;;;;;41.15;22.77;;;7.30;99.90;;;;;;4990064;28;20400;-73
2022/03/29 05:24:26;;;;;;;40.88;23.92;;;7.30;99.90;;;;;;4973004;28;20185;-72
2022/03/29 05:26:51;;;;;;;38.88;22.80;;;7.30;99.90;;;;;;4988049;28;20042;-73
2022/03/29 05:29:18;;;;;;;40.72;22.85;;;8.60;99.90;;;;;;4990729;28;20069;-73
2022/03/29 05:31:44;;;;;;;40.97;22.95;;;7.30;99.90;;;;;;4987771;28;20515;-73
2022/03/29 05:34:09;;;;;;;41.55;23.73;;;7.30;99.90;;;;;;4990167;28;20130;-73
2022/03/29 05:36:35;;;;;;;42.17;22.77;;;7.40;99.90;;;;;;4990416;28;20074;-73
2022/03/29 05:39:03;;;;;;;37.03;23.17;;;7.30;99.90;;;;;;4989639;28;20043;-73
2022/03/29 05:41:29;;;;;;;35.97;22.40;;;7.40;99.90;;;;;;4988294;28;20477;-74
2022/03/29 05:43:54;;;;;;;37.22;22.55;;;7.40;99.90;;;;;;4988788;28;20173;-74
2022/03/29 05:49:05;;;;;;;35.25;21.52;;;7.40;99.90;;;;;;4989177;28;20053;-74
2022/03/29 05:51:31;;;;;;;37.25;21.02;;;8.60;99.90;;;;;;4971379;28;20042;-74
2022/03/29 05:54:00;;;;;;;33.30;20.63;;;7.50;99.90;;;;;;4989482;28;20054;-73
2022/03/29 05:56:26;;;;;;;38.15;20.60;;;9.10;99.90;;;;;;4970116;28;20050;-73
2022/03/29 05:58:52;;;;;;;37.15;21.50;;;9.00;99.90;;;;;;4971740;28;20471;-73
2022/03/29 06:01:20;;;;;;;38.25;20.65;;;8.00;99.90;;;;;;4972410;28;20057;-73
2022/03/29 06:03:46;;;;;;;37.05;20.88;;;9.10;99.90;;;;;;4989690;28;20038;-73
2022/03/29 06:06:13;;;;;;;32.45;20.33;;;7.00;99.90;;;;;;4958401;28;20416;-74
2022/03/29 06:08:39;;;;;;;32.65;20.40;;;8.20;99.90;;;;;;4984281;28;20043;-76
2022/03/29 06:11:04;;;;;;;36.75;21.10;;;8.90;99.90;;;;;;4951266;28;20392;-73
2022/03/29 06:13:31;;;;;;;41.97;22.45;;;7.50;99.90;;;;;;4951790;28;20047;-74
2022/03/29 06:15:57;;;;;;;38.33;21.48;;;8.80;99.90;;;;;;4951870;28;20406;-74
2022/03/29 06:18:23;;;;;;;41.67;21.95;;;8.30;99.90;;;;;;4988755;28;20121;-75
2022/03/29 06:20:49;;;;;;;36.95;21.77;;;7.50;99.90;;;;;;4988603;28;20050;-72
2022/03/29 06:23:16;;;;;;;37.83;22.45;;;7.60;99.90;;;;;;4988341;28;20054;-72
2022/03/29 06:25:42;;;;;;;43.33;24.10;;;7.60;99.90;;;;;;4971159;28;20078;-73
2022/03/29 06:28:10;;;;;;;40.33;23.35;;;8.10;99.90;;;;;;4988365;28;20058;-73
2022/03/29 06:30:40;;;;;;;38.33;22.08;;;7.60;99.90;;;;;;4988579;28;20137;-73
2022/03/29 06:33:06;;;;;;;38.38;23.83;;;7.60;99.90;;;;;;4972404;28;20058;-73
2022/03/29 06:35:34;;;;;;;43.15;23.92;;;8.60;99.90;;;;;;4972164;28;20049;-73
2022/03/29 06:38:00;;;;;;;40.97;23.20;;;7.60;99.90;;;;;;4988966;28;20061;-74
2022/03/29 06:40:27;;;;;;;34.92;22.85;;;7.50;99.90;;;;;;4988990;28;20232;-74
2022/03/29 06:42:57;;;;;;;41.22;23.27;;;7.60;99.90;;;;;;4987124;28;20046;-75
2022/03/29 06:45:24;;;;;;;38.17;22.23;;;7.70;99.90;;;;;;4983848;28;20035;-74
2022/03/29 06:47:50;;;;;;;42.85;24.15;;;7.60;99.90;;;;;;4986877;28;20495;-74
2022/03/29 06:50:16;;;;;;;40.35;22.42;;;8.00;99.90;;;;;;4987266;28;20057;-73
2022/03/29 06:52:44;;;;;;;38.15;21.73;;;7.70;99.90;;;;;;4980322;28;20038;-74
2022/03/29 06:55:11;;;;;;;39.53;21.95;;;7.70;99.90;;;;;;4987148;28;20054;-75
2022/03/29 06:57:38;;;;;;;35.35;22.77;;;7.20;99.90;;;;;;4979303;28;20129;-73
2022/03/29 07:00:06;;;;;;;38.63;22.75;;;7.70;99.90;;;;;;4968516;28;20043;-73
2022/03/29 07:02:32;;;;;;;43.92;22.23;;;7.70;99.90;;;;;;4968147;28;20129;-73
2022/03/29 07:04:59;;;;;;;39.60;22.20;;;8.20;99.90;;;;;;4979796;28;20034;-81
2022/03/29 07:07:25;;;;;;;37.30;22.38;;;9.00;99.90;;;;;;4987833;28;20057;-72
2022/03/29 07:12:54;;;;;;;38.95;21.50;;;7.80;99.90;;;;;;4986847;28;20050;-73
2022/03/29 07:15:20;;;;;;;34.15;21.67;;;9.20;99.90;;;;;;4988058;28;20492;-73
2022/03/29 07:17:46;;;;;;;36.63;22.00;;;7.70;99.90;;;;;;4988193;28;20072;-73
2022/03/29 07:20:13;;;;;;;42.83;22.30;;;8.60;99.90;;;;;;4987784;28;20046;-73
2022/03/29 07:22:39;;;;;;;38.45;22.10;;;7.90;99.90;;;;;;4987386;28;20125;-74
2022/03/29 07:25:06;;;;;;;41.20;22.90;;;9.90;99.90;;;;;;4987669;28;20085;-73
2022/03/29 07:27:32;;;;;;;40.30;20.70;;;8.20;99.90;;;;;;4969115;28;20493;-72
2022/03/29 07:29:59;;;;;;;43.72;21.75;;;8.30;99.90;;;;;;4988047;28;20470;-72
2022/03/29 07:32:25;;;;;;;38.28;20.38;;;8.40;99.90;;;;;;4970664;28;20121;-72
2022/03/29 07:34:53;;;;;;;40.30;20.70;;;8.40;99.90;;;;;;4969540;28;20439;-72
2022/03/29 07:37:19;;;;;;;38.40;20.05;;;8.50;99.90;;;;;;4954688;28;20046;-72
2022/03/29 07:39:46;;;;;;;40.60;21.55;;;8.70;99.90;;;;;;4987428;28;20061;-73
2022/03/29 07:42:11;;;;;;;37.70;21.35;;;10.10;99.90;;;;;;4986887;28;20069;-73
2022/03/29 07:44:37;;;;;;;41.90;20.33;;;8.90;99.90;;;;;;4984652;28;20038;-73
2022/03/29 07:47:03;;;;;;;34.47;19.48;;;9.20;99.90;;;;;;4987544;28;20041;-74
2022/03/29 07:49:29;;;;;;;38.08;19.90;;;9.10;99.90;;;;;;4986602;28;20034;-73
2022/03/29 07:51:56;;;;;;;38.35;19.60;;;10.20;99.90;;;;;;4970706;28;20046;-73
2022/03/29 07:54:22;;;;;;;36.00;19.48;;;9.20;99.90;;;;;;4987818;28;20030;-73
2022/03/29 07:56:47;;;;;;;33.28;19.25;;;9.30;99.90;;;;;;4992510;28;20053;-74
2022/03/29 07:59:13;;;;;;;36.63;18.83;;;9.40;99.90;;;;;;4994280;28;20038;-74
2022/03/29 08:01:39;;;;;;;31.27;18.02;;;9.50;99.90;;;;;;4993523;28;20046;-73
2022/03/29 08:04:09;;;;;;;32.60;17.92;;;9.50;99.90;;;;;;4994773;28;20041;-73
2022/03/29 08:06:35;;;;;;;33.42;17.92;;;9.50;99.90;;;;;;4976274;28;20042;-74
2022/03/29 08:09:01;;;;;;;31.23;17.00;;;9.50;99.90;;;;;;4975648;28;20038;-73
2022/03/29 08:11:27;;;;;;;32.65;17.10;;;9.50;99.90;;;;;;4989189;28;20069;-73
2022/03/29 08:13:54;;;;;;;34.42;16.98;;;9.50;99.90;;;;;;4990062;28;20046;-73
2022/03/29 08:16:19;;;;;;;31.50;18.52;;;9.50;99.90;;;;;;4968476;28;20047;-73
2022/03/29 08:18:45;;;;;;;33.85;16.42;;;9.50;99.90;;;;;;4971155;28;20042;-73
2022/03/29 08:23:56;;;;;;;41.10;18.20;;;9.60;99.90;;;;;;4987725;28;20050;-72
2022/03/29 08:26:22;;;;;;;32.72;17.60;;;9.50;99.90;;;;;;4991977;28;20125;-73
2022/03/29 08:28:48;;;;;;;33.00;17.23;;;9.50;99.90;;;;;;4990558;28;20644;-73
2022/03/29 08:31:13;;;;;;;29.33;16.63;;;10.40;99.90;;;;;;4973291;28;20508;-73
2022/03/29 08:33:39;;;;;;;35.03;16.95;;;10.40;99.90;;;;;;4990934;28;20034;-74
2022/03/29 08:36:05;;;;;;;32.17;15.90;;;9.40;99.90;;;;;;4990852;28;20549;-73
2022/03/29 08:38:30;;;;;;;27.98;15.88;;;9.30;99.90;;;;;;4963177;28;20042;-74
2022/03/29 08:40:58;;;;;;;32.38;15.10;;;9.30;99.90;;;;;;4970622;28;20483;-73
2022/03/29 08:43:27;;;;;;;38.83;16.00;;;9.30;99.90;;;;;;4971616;28;20407;-73
2022/03/29 08:45:53;;;;;;;36.00;14.90;;;9.40;99.90;;;;;;4969395;28;20043;-73
2022/03/29 08:48:23;;;;;;;26.60;12.13;;;9.50;99.90;;;;;;4991421;28;20382;-74
2022/03/29 08:50:54;;;;;;;24.70;11.73;;;9.70;99.90;;;;;;4988687;28;20038;-74
2022/03/29 08:53:20;;;;;;;33.95;12.02;;;9.90;99.90;;;;;;4955069;28;20050;-73
2022/03/29 08:55:48;;;;;;;25.45;11.68;;;10.00;99.90;;;;;;4967646;28;20753;-72
2022/03/29 08:58:16;;;;;;;26.45;11.32;;;10.10;99.90;;;;;;4986634;28;20109;-72
2022/03/29 09:00:45;;;;;;;26.55;11.55;;;10.10;99.90;;;;;;4987527;28;20048;-72
2022/03/29 09:03:11;;;;;;;31.92;11.15;;;10.10;99.90;;;;;;4988371;28;20153;-71
2022/03/29 09:05:37;;;;;;;24.95;11.10;;;10.20;99.90;;;;;;4986146;28;20117;-72
2022/03/29 09:08:11;;;;;;;27.45;11.07;;;10.30;99.90;;;;;;4987192;28;20471;-72
2022/03/29 09:10:45;;;;;;;25.00;10.30;;;10.50;99.90;;;;;;4986031;28;20516;-72
2022/03/29 09:13:15;;;;;;;28.98;10.50;;;10.60;99.90;;;;;;4986593;28;20474;-72
2022/03/29 09:15:41;;;;;;;22.63;9.15;;;10.70;99.90;;;;;;4970125;28;20129;-72
2022/03/29 09:18:08;;;;;;;20.92;8.60;;;10.70;99.90;;;;;;4987047;28;20081;-73
2022/03/29 09:20:34;;;;;;;22.27;10.13;;;10.90;99.90;;;;;;4985717;28;20061;-71
2022/03/29 09:22:59;;;;;;;27.52;10.38;;;11.10;99.90;;;;;;4990720;28;20066;-71
2022/03/29 09:25:35;;;;;;;24.83;10.25;;;11.30;99.90;;;;;;4989939;28;20046;-72
2022/03/29 09:28:05;;;;;;;22.95;9.73;;;11.70;99.90;;;;;;4989289;28;20050;-71
2022/03/29 09:30:38;;;;;;;24.67;9.50;;;14.50;99.90;;;;;;4973286;28;20443;-71
2022/03/29 09:33:12;;;;;;;28.08;10.18;;;14.70;99.90;;;;;;4956728;28;20104;-72
2022/03/29 09:35:59;;;;;;;25.85;10.65;;;15.60;99.90;;;;;;4991064;28;20428;-71
2022/03/29 09:38:27;;;;;;;24.50;9.90;;;16.20;99.90;;;;;;4991603;28;20049;-71
2022/03/29 09:40:54;;;;;;;21.10;9.75;;;17.90;99.90;;;;;;4970766;28;20042;-71
2022/03/29 09:43:22;;;;;;;19.15;9.45;;;16.90;99.90;;;;;;4990013;28;20074;-71
2022/03/29 09:45:59;;;;;;;22.77;9.02;;;16.70;99.90;;;;;;4989801;28;20121;-70
2022/03/29 09:48:32;;;;;;;22.95;9.68;;;16.20;99.90;;;;;;4989555;28;20054;-71
2022/03/29 09:51:07;;;;;;;20.00;9.02;;;15.70;99.90;;;;;;4972542;28;20054;-71
2022/03/29 09:53:40;;;;;;;25.60;9.48;;;15.20;99.90;;;;;;4990067;28;20039;-70
2022/03/29 09:56:08;;;;;;;24.40;9.18;;;14.90;99.90;;;;;;4989868;28;20106;-70
2022/03/29 09:58:34;;;;;;;23.98;9.00;;;14.80;99.90;;;;;;4988982;28;20058;-70
2022/03/29 10:01:01;;;;;;;24.42;9.02;;;15.00;99.90;;;;;;4989018;28;20053;-71
2022/03/29 10:03:28;;;;;;;23.45;9.23;;;14.80;99.90;;;;;;4990168;28;20454;-71
2022/03/29 10:06:01;;;;;;;21.15;8.93;;;14.60;99.90;;;;;;4989267;28;20399;-71
2022/03/29 10:11:15;;;;;;;24.55;9.77;;;13.90;99.90;;;;;;4988051;28;20051;-71
2022/03/29 10:13:41;;;;;;;22.95;8.98;;;13.60;99.90;;;;;;4971630;28;20097;-70
2022/03/29 10:16:12;;;;;;;22.65;9.10;;;13.50;99.90;;;;;;4991977;28;20038;-71
2022/03/29 10:18:37;;;;;;;23.08;8.63;;;14.30;99.90;;;;;;4991617;28;20038;-73
2022/03/29 10:21:04;;;;;;;21.52;8.95;;;13.20;99.90;;;;;;4953361;28;20109;-73
2022/03/29 10:23:31;;;;;;;26.17;8.90;;;12.80;99.90;;;;;;4968965;28;20118;-71
2022/03/29 10:25:58;;;;;;;27.38;9.02;;;12.60;99.90;;;;;;4969582;28;20065;-72
2022/03/29 10:28:28;;;;;;;23.60;8.38;;;12.60;99.90;;;;;;4969163;28;20043;-72
2022/03/29 10:30:53;;;;;;;22.13;7.13;;;12.50;99.90;;;;;;4968534;28;20476;-72
2022/03/29 10:33:27;;;;;;;25.83;8.55;;;12.40;99.90;;;;;;4954256;28;20126;-72
2022/03/29 10:36:01;;;;;;;24.45;8.55;;;12.40;99.90;;;;;;4989091;28;20126;-72
2022/03/29 10:38:47;;;;;;;22.42;8.55;;;12.90;99.90;;;;;;4988174;28;20050;-73
2022/03/29 10:41:28;;;;;;;;;;;15.10;99.90;;;;;;4987915;28;20058;-72
2022/03/29 10:44:04;;;;;;;22.42;8.57;;;16.30;99.90;;;;;;4988359;28;19921;-72
2022/03/29 10:46:50;;;;;;;20.40;7.32;;;16.60;99.90;;;;;;4970489;28;20050;-72
2022/03/29 10:49:20;;;;;;;;;;;16.00;99.90;;;;;;4989286;28;20054;-72
2022/03/29 10:52:10;;;;;;;22.92;6.90;;;15.80;99.90;;;;;;4953463;28;20008;-71
2022/03/29 10:54:37;;;;;;;19.60;6.75;;;15.90;99.90;;;;;;4960178;28;20113;-70
2022/03/29 10:57:16;;;;;;;20.30;7.13;;;16.90;99.90;;;;;;4970178;28;20057;-71
2022/03/29 10:59:42;;;;;;;20.08;7.10;;;17.10;98.00;;;;;;4988523;28;20054;-70
2022/03/29 11:02:22;;;;;;;18.02;7.50;;;16.60;98.90;;;;;;4988870;28;20057;-70
2022/03/29 11:05:12;;;;;;;19.73;7.05;;;16.80;99.30;;;;;;4989347;28;20144;-71
2022/03/29 11:07:53;;;;;;;18.67;6.97;;;16.70;99.00;;;;;;4971143;28;20050;-71
2022/03/29 11:10:20;;;;;;;17.77;6.50;;;16.60;98.80;;;;;;4951225;28;20043;-71
2022/03/29 11:12:48;;;;;;;18.60;7.75;;;16.50;99.30;;;;;;4950357;28;20082;-71
2022/03/29 11:15:36;;;;;;;20.35;6.72;;;18.20;97.90;;;;;;4951942;28;20538;-71
2022/03/29 11:18:06;;;;;;;18.55;7.15;;;17.00;97.20;;;;;;4968574;28;20553;-71
2022/03/29 11:20:38;;;;;;;16.10;6.32;;;18.20;96.70;;;;;;4968513;28;20138;-71
2022/03/29 11:23:04;;;;;;;22.13;7.28;;;18.40;95.70;;;;;;4935259;28;20095;-71
2022/03/29 11:25:45;;;;;;;15.65;7.03;;;18.30;96.20;;;;;;4968062;28;20045;-71
2022/03/29 11:28:15;;;;;;;19.52;7.35;;;18.00;96.20;;;;;;4968601;28;20053;-70
2022/03/29 11:30:41;;;;;;;19.15;7.10;;;17.60;96.10;;;;;;4968550;28;20042;-70
2022/03/29 11:33:09;;;;;;;20.90;7.50;;;17.10;96.30;;;;;;4969229;28;20408;-71
2022/03/29 11:35:37;;;;;;;17.10;6.95;;;16.40;97.50;;;;;;4975079;28;20056;-71
2022/03/29 11:38:16;;;;;;;19.38;6.82;;;15.90;98.60;;;;;;4976362;28;20109;-71
2022/03/29 11:40:42;;;;;;;19.52;7.47;;;16.00;99.60;;;;;;4975108;28;20526;-71
2022/03/29 11:43:15;;;;;;;19.80;7.05;;;15.50;99.90;;;;;;4975488;28;20039;-71
2022/03/29 11:45:44;;;;;;;19.95;6.95;;;15.50;99.90;;;;;;4976670;28;20046;-71
2022/03/29 11:48:12;;;;;;;18.27;7.88;;;15.20;99.90;;;;;;4975563;28;20057;-71
2022/03/29 11:50:46;;;;;;;21.35;7.28;;;14.90;99.90;;;;;;4976580;28;20058;-71
2022/03/29 11:53:30;;;;;;;19.38;7.25;;;15.10;99.90;;;;;;4983852;28;20129;-74
2022/03/29 11:56:15;;;;;;;21.02;7.10;;;14.20;99.90;;;;;;4965262;28;20057;-77
2022/03/29 11:58:43;;;;;;;21.48;7.32;;;13.80;99.90;;;;;;4955225;28;20198;-77
2022/03/29 12:01:15;;;;;;;18.88;7.93;;;13.50;99.90;;;;;;4947156;28;20050;-74
2022/03/29 12:03:44;;;;;;;20.42;7.30;;;13.30;99.90;;;;;;4965431;28;20094;-78
2022/03/29 12:06:19;;;;;;;18.17;7.68;;;13.20;99.90;;;;;;4946774;28;20089;-77
2022/03/29 12:08:58;;;;;;;21.58;7.75;;;13.20;99.90;;;;;;4971113;28;20465;-75
2022/03/29 12:11:25;;;;;;;19.92;7.00;;;13.20;99.90;;;;;;4982917;28;20495;-77
2022/03/29 12:14:06;;;;;;;20.55;7.47;;;13.00;99.90;;;;;;4984222;28;20463;-76
2022/03/29 12:16:40;;;;;;;22.40;7.00;;;11.90;99.90;;;;;;4983294;28;20069;-74
2022/03/29 12:19:20;;;;;;;24.70;8.02;;;12.80;99.90;;;;;;4984466;28;20069;-74
2022/03/29 12:21:51;;;;;;;19.73;7.25;;;12.90;99.90;;;;;;4965695;28;20070;-76
2022/03/29 12:24:18;;;;;;;23.30;7.40;;;13.80;99.90;;;;;;4951793;28;20141;-77
2022/03/29 12:26:46;;;;;;;20.70;7.53;;;13.70;99.90;;;;;;4983273;28;20042;-75
2022/03/29 12:29:14;;;;;;;24.15;7.47;;;13.00;99.90;;;;;;4954455;28;20108;-75
2022/03/29 12:31:41;;;;;;;18.42;7.75;;;14.30;99.90;;;;;;4987756;28;20049;-74
2022/03/29 12:34:08;;;;;;;20.15;7.22;;;13.40;99.90;;;;;;4966746;28;20053;-76
2022/03/29 12:36:39;;;;;;;17.75;7.78;;;14.80;99.90;;;;;;4983871;28;20494;-75
2022/03/29 12:39:07;;;;;;;20.60;8.02;;;14.70;99.90;;;;;;4984726;28;20057;-76
2022/03/29 12:41:55;;;;;;;18.00;7.60;;;14.20;99.90;;;;;;4984691;28;20408;-74
2022/03/29 12:44:37;;;;;;;21.25;8.88;;;13.90;99.90;;;;;;4969351;28;20065;-72
2022/03/29 12:47:05;;;;;;;23.27;8.57;;;14.00;99.90;;;;;;4990187;28;20129;-73
2022/03/29 12:49:33;;;;;;;22.20;9.15;;;14.00;99.90;;;;;;4987907;28;20325;-73
2022/03/29 12:52:01;;;;;;;20.05;8.00;;;14.00;99.90;;;;;;4986954;28;20086;-74
2022/03/29 12:54:37;;;;;;;19.75;8.38;;;13.10;99.90;;;;;;4970310;28;20046;-75